ENML Airport Information

Runway Information
Runway 07 Length 6922 ft width 148 ft Elevation 10 ft Threshold N/A Heading 71
Runway 25 Length 6922 ft Width 148 ft Elevation 10 ft Threshold N/A Heading 251
Airport Frequencies
Type AFIS Name MOLDE INFO Frequency 119.95 MHZ
Airport Navaids
Type NDB Name Tautra Frequency 393 KHZ
Airport Weather Information & NOTAM
ADDS - METARS form results

(1207 UTC 09 February 2023)
Data provider http://aviationweather.gov/metar/data/
 
METAR text: ENML 091150Z 22016G26KT 9999 -SHRA SCT012 BKN025 02/00 Q0997
Conditions at: ENML (MOLDE/ARO , NO) observed 1150 UTC 09 February 2023
Temperature: 2.0°C (36°F)
Dewpoint: 0.0°C (32°F) [RH = 87%]
Pressure (altimeter): 29.44 inches Hg (997.0 mb)
Winds: from the SW (220 degrees) at 18 MPH (16 knots; 8.2 m/s)
gusting to 30 MPH (26 knots; 13.4 m/s)
Visibility: 6 or more miles (10+ km)
Ceiling: 2500 feet AGL
Clouds: scattered clouds at 1200 feet AGL
broken clouds at 2500 feet AGL
Weather: -SHRA  (light rain showers)

METAR text: ENML 091120Z 23021KT 7000 -SHSN SCT012 BKN018 01/00 Q0997
Conditions at: ENML (MOLDE/ARO , NO) observed 1120 UTC 09 February 2023
Temperature: 1.0°C (34°F)
Dewpoint: 0.0°C (32°F) [RH = 93%]
Pressure (altimeter): 29.44 inches Hg (997.0 mb)
Winds: from the SW (230 degrees) at 24 MPH (21 knots; 10.8 m/s)
Visibility: 4 miles ( 7 km)
Ceiling: 1800 feet AGL
Clouds: scattered clouds at 1200 feet AGL
broken clouds at 1800 feet AGL
Weather: -SHSN  (light snow showers)

Forecast for: ENML (MOLDE/ARO , NO)
Text: TAF ENML 091100Z 0912/0921 24020KT 9999 -SHSNRA SCT015CB BKN030
Forecast period: 1200 to 2100 UTC 09 February 2023
Forecast type: FROM: standard forecast or significant change
Winds: from the WSW (240 degrees) at 23 MPH (20 knots; 10.3 m/s)
Visibility: 6 or more miles (10+ km)
Ceiling: 3000 feet AGL
Clouds: scattered clouds at 1500 feet AGL
broken clouds at 3000 feet AGL
Weather: -SHSN -SHRA  (light snow showers, light rain showers)
Text: TEMPO 0912/0921 25028G42KT 0800 SHSNGS VV006
Forecast period: 1200 to 2100 UTC 09 February 2023
Forecast type: TEMPORARY: The following changes expected for less than half the time period
Winds: from the WSW (250 degrees) at 32 MPH (28 knots; 14.4 m/s)
gusting to 48 MPH (42 knots; 21.6 m/s)
Visibility: 0.50 miles (0.80 km)
Ceiling: indefinite ceiling with vertical visibility of 600 feet AGL
Clouds: obscured sky
Weather: SHSN SHGS  (snow showers, small hail or graupel showers)
Text: PROB30
Forecast period: 1200 to 2100 UTC 09 February 2023
Forecast type: TEMPORARY: The following changes expected for less than half the time period
Visibility: missing
Ceiling: unknown
Clouds: missing
Weather: TS  (thunderstorm)